sensor_id;sensor_type;location;lat;lon;timestamp;P1;durP1;ratioP1;P2;durP2;ratioP2
4909;SDS011;2470;49.868;8.660;2022-07-29T00:02:21;1.25;;;1.15;;
4909;SDS011;2470;49.868;8.660;2022-07-29T00:04:46;2.10;;;1.40;;
4909;SDS011;2470;49.868;8.660;2022-07-29T00:07:12;2.25;;;1.55;;
4909;SDS011;2470;49.868;8.660;2022-07-29T00:09:37;1.80;;;1.20;;
4909;SDS011;2470;49.868;8.660;2022-07-29T00:12:03;1.90;;;1.55;;
4909;SDS011;2470;49.868;8.660;2022-07-29T00:14:29;2.17;;;1.45;;
4909;SDS011;2470;49.868;8.660;2022-07-29T00:16:54;1.52;;;1.42;;
4909;SDS011;2470;49.868;8.660;2022-07-29T00:19:20;1.23;;;1.13;;
4909;SDS011;2470;49.868;8.660;2022-07-29T00:21:45;1.75;;;1.20;;
4909;SDS011;2470;49.868;8.660;2022-07-29T00:24:11;2.42;;;1.45;;
4909;SDS011;2470;49.868;8.660;2022-07-29T00:26:36;1.60;;;1.30;;
4909;SDS011;2470;49.868;8.660;2022-07-29T00:29:03;2.65;;;1.90;;
4909;SDS011;2470;49.868;8.660;2022-07-29T00:31:29;1.30;;;1.20;;
4909;SDS011;2470;49.868;8.660;2022-07-29T00:33:55;1.95;;;1.38;;
4909;SDS011;2470;49.868;8.660;2022-07-29T00:36:21;2.70;;;1.20;;
4909;SDS011;2470;49.868;8.660;2022-07-29T00:38:47;4.53;;;1.70;;
4909;SDS011;2470;49.868;8.660;2022-07-29T00:41:14;2.10;;;1.35;;
4909;SDS011;2470;49.868;8.660;2022-07-29T00:43:41;2.03;;;1.60;;
4909;SDS011;2470;49.868;8.660;2022-07-29T00:46:07;1.30;;;1.10;;
4909;SDS011;2470;49.868;8.660;2022-07-29T00:48:32;1.50;;;1.40;;
4909;SDS011;2470;49.868;8.660;2022-07-29T00:50:58;1.90;;;0.95;;
4909;SDS011;2470;49.868;8.660;2022-07-29T00:53:26;1.10;;;1.00;;
4909;SDS011;2470;49.868;8.660;2022-07-29T00:55:53;1.83;;;1.63;;
4909;SDS011;2470;49.868;8.660;2022-07-29T00:58:19;2.00;;;1.70;;
4909;SDS011;2470;49.868;8.660;2022-07-29T01:00:45;2.00;;;1.48;;
4909;SDS011;2470;49.868;8.660;2022-07-29T01:03:11;1.60;;;1.50;;
4909;SDS011;2470;49.868;8.660;2022-07-29T01:05:36;3.35;;;1.55;;
4909;SDS011;2470;49.868;8.660;2022-07-29T01:08:03;2.10;;;1.30;;
4909;SDS011;2470;49.868;8.660;2022-07-29T01:10:29;1.30;;;1.20;;
4909;SDS011;2470;49.868;8.660;2022-07-29T01:12:57;1.25;;;1.02;;
4909;SDS011;2470;49.868;8.660;2022-07-29T01:15:24;1.35;;;1.20;;
4909;SDS011;2470;49.868;8.660;2022-07-29T01:18:11;1.90;;;1.10;;
4909;SDS011;2470;49.868;8.660;2022-07-29T01:21:07;1.02;;;0.98;;
4909;SDS011;2470;49.868;8.660;2022-07-29T01:23:50;2.92;;;1.33;;
4909;SDS011;2470;49.868;8.660;2022-07-29T01:29:09;2.53;;;1.17;;
4909;SDS011;2470;49.868;8.660;2022-07-29T01:34:29;1.30;;;1.20;;
4909;SDS011;2470;49.868;8.660;2022-07-29T01:37:08;6.70;;;1.58;;
4909;SDS011;2470;49.868;8.660;2022-07-29T01:39:45;1.73;;;1.40;;
4909;SDS011;2470;49.868;8.660;2022-07-29T01:42:30;1.20;;;1.10;;
4909;SDS011;2470;49.868;8.660;2022-07-29T01:45:02;4.90;;;1.77;;
4909;SDS011;2470;49.868;8.660;2022-07-29T01:47:40;1.92;;;1.27;;
4909;SDS011;2470;49.868;8.660;2022-07-29T01:50:10;1.20;;;1.10;;
4909;SDS011;2470;49.868;8.660;2022-07-29T01:52:41;1.40;;;1.30;;
4909;SDS011;2470;49.868;8.660;2022-07-29T01:55:15;1.45;;;1.27;;
4909;SDS011;2470;49.868;8.660;2022-07-29T01:57:43;1.77;;;1.38;;
4909;SDS011;2470;49.868;8.660;2022-07-29T02:00:11;1.30;;;1.20;;
4909;SDS011;2470;49.868;8.660;2022-07-29T02:02:39;2.00;;;1.33;;
4909;SDS011;2470;49.868;8.660;2022-07-29T02:05:09;1.48;;;1.35;;
4909;SDS011;2470;49.868;8.660;2022-07-29T02:07:37;1.15;;;1.05;;
4909;SDS011;2470;49.868;8.660;2022-07-29T02:10:05;1.73;;;1.20;;
4909;SDS011;2470;49.868;8.660;2022-07-29T02:12:32;1.30;;;1.20;;
4909;SDS011;2470;49.868;8.660;2022-07-29T02:14:59;1.35;;;1.25;;
4909;SDS011;2470;49.868;8.660;2022-07-29T02:17:29;2.85;;;1.58;;
4909;SDS011;2470;49.868;8.660;2022-07-29T02:19:59;1.67;;;1.50;;
4909;SDS011;2470;49.868;8.660;2022-07-29T02:22:26;2.65;;;1.40;;
4909;SDS011;2470;49.868;8.660;2022-07-29T02:24:56;1.70;;;1.40;;
4909;SDS011;2470;49.868;8.660;2022-07-29T02:27:23;2.13;;;1.45;;
4909;SDS011;2470;49.868;8.660;2022-07-29T02:29:50;1.48;;;1.10;;
4909;SDS011;2470;49.868;8.660;2022-07-29T02:32:17;1.50;;;1.20;;
4909;SDS011;2470;49.868;8.660;2022-07-29T02:34:44;1.60;;;1.33;;
4909;SDS011;2470;49.868;8.660;2022-07-29T02:37:11;1.42;;;1.00;;
4909;SDS011;2470;49.868;8.660;2022-07-29T02:39:39;2.20;;;1.40;;
4909;SDS011;2470;49.868;8.660;2022-07-29T02:42:07;1.75;;;1.33;;
4909;SDS011;2470;49.868;8.660;2022-07-29T02:44:37;1.73;;;1.60;;
4909;SDS011;2470;49.868;8.660;2022-07-29T02:47:16;1.30;;;1.15;;
4909;SDS011;2470;49.868;8.660;2022-07-29T02:50:29;1.83;;;1.30;;
4909;SDS011;2470;49.868;8.660;2022-07-29T02:52:54;1.98;;;1.58;;
4909;SDS011;2470;49.868;8.660;2022-07-29T03:01:16;1.63;;;1.33;;
4909;SDS011;2470;49.868;8.660;2022-07-29T03:03:47;7.05;;;1.52;;
4909;SDS011;2470;49.868;8.660;2022-07-29T03:06:16;1.40;;;1.30;;
4909;SDS011;2470;49.868;8.660;2022-07-29T03:08:44;1.88;;;1.33;;
4909;SDS011;2470;49.868;8.660;2022-07-29T03:11:10;1.25;;;0.98;;
4909;SDS011;2470;49.868;8.660;2022-07-29T03:13:37;2.17;;;1.60;;
4909;SDS011;2470;49.868;8.660;2022-07-29T03:16:03;1.65;;;1.55;;
4909;SDS011;2470;49.868;8.660;2022-07-29T03:18:30;1.67;;;1.52;;
4909;SDS011;2470;49.868;8.660;2022-07-29T03:20:56;1.98;;;1.73;;
4909;SDS011;2470;49.868;8.660;2022-07-29T03:23:22;2.53;;;1.95;;
4909;SDS011;2470;49.868;8.660;2022-07-29T03:25:52;3.25;;;1.90;;
4909;SDS011;2470;49.868;8.660;2022-07-29T03:28:17;3.78;;;1.40;;
4909;SDS011;2470;49.868;8.660;2022-07-29T03:30:43;2.53;;;1.77;;
4909;SDS011;2470;49.868;8.660;2022-07-29T03:33:09;4.50;;;2.10;;
4909;SDS011;2470;49.868;8.660;2022-07-29T03:35:34;3.95;;;2.70;;
4909;SDS011;2470;49.868;8.660;2022-07-29T03:38:00;8.10;;;3.50;;
4909;SDS011;2470;49.868;8.660;2022-07-29T03:40:27;9.00;;;3.83;;
4909;SDS011;2470;49.868;8.660;2022-07-29T03:43:14;9.68;;;4.50;;
4909;SDS011;2470;49.868;8.660;2022-07-29T03:45:42;6.65;;;3.47;;
4909;SDS011;2470;49.868;8.660;2022-07-29T03:48:12;13.60;;;3.58;;
4909;SDS011;2470;49.868;8.660;2022-07-29T03:50:41;6.38;;;2.95;;
4909;SDS011;2470;49.868;8.660;2022-07-29T03:53:07;5.85;;;2.67;;
4909;SDS011;2470;49.868;8.660;2022-07-29T03:55:40;4.15;;;2.35;;
4909;SDS011;2470;49.868;8.660;2022-07-29T03:58:08;5.40;;;2.67;;
4909;SDS011;2470;49.868;8.660;2022-07-29T04:00:35;3.00;;;1.88;;
4909;SDS011;2470;49.868;8.660;2022-07-29T04:03:02;4.85;;;2.13;;
4909;SDS011;2470;49.868;8.660;2022-07-29T04:05:29;3.83;;;1.88;;
4909;SDS011;2470;49.868;8.660;2022-07-29T04:07:54;2.65;;;1.70;;
4909;SDS011;2470;49.868;8.660;2022-07-29T04:10:20;3.63;;;2.03;;
4909;SDS011;2470;49.868;8.660;2022-07-29T04:12:45;2.10;;;1.42;;
4909;SDS011;2470;49.868;8.660;2022-07-29T04:15:11;1.67;;;1.48;;
4909;SDS011;2470;49.868;8.660;2022-07-29T04:17:37;2.30;;;2.08;;
4909;SDS011;2470;49.868;8.660;2022-07-29T04:20:03;1.65;;;1.42;;
4909;SDS011;2470;49.868;8.660;2022-07-29T04:22:29;2.50;;;1.55;;
4909;SDS011;2470;49.868;8.660;2022-07-29T04:24:55;2.55;;;1.40;;
4909;SDS011;2470;49.868;8.660;2022-07-29T04:27:20;1.40;;;1.30;;
4909;SDS011;2470;49.868;8.660;2022-07-29T04:29:46;5.57;;;1.58;;
4909;SDS011;2470;49.868;8.660;2022-07-29T04:32:11;1.85;;;1.63;;
4909;SDS011;2470;49.868;8.660;2022-07-29T04:34:37;1.75;;;1.38;;
4909;SDS011;2470;49.868;8.660;2022-07-29T04:37:02;1.25;;;1.15;;
4909;SDS011;2470;49.868;8.660;2022-07-29T04:39:28;1.45;;;1.27;;
4909;SDS011;2470;49.868;8.660;2022-07-29T04:41:53;2.10;;;1.45;;
4909;SDS011;2470;49.868;8.660;2022-07-29T04:44:19;3.67;;;1.48;;
4909;SDS011;2470;49.868;8.660;2022-07-29T04:46:44;1.52;;;1.33;;
4909;SDS011;2470;49.868;8.660;2022-07-29T04:49:10;2.00;;;1.30;;
4909;SDS011;2470;49.868;8.660;2022-07-29T04:51:35;1.67;;;1.40;;
4909;SDS011;2470;49.868;8.660;2022-07-29T04:54:01;2.05;;;1.50;;
4909;SDS011;2470;49.868;8.660;2022-07-29T04:56:27;2.25;;;1.60;;
4909;SDS011;2470;49.868;8.660;2022-07-29T04:58:52;1.60;;;1.50;;
4909;SDS011;2470;49.868;8.660;2022-07-29T05:01:18;2.38;;;1.52;;
4909;SDS011;2470;49.868;8.660;2022-07-29T05:03:44;1.70;;;1.17;;
4909;SDS011;2470;49.868;8.660;2022-07-29T05:06:10;1.45;;;1.35;;
4909;SDS011;2470;49.868;8.660;2022-07-29T05:08:36;7.85;;;2.05;;
4909;SDS011;2470;49.868;8.660;2022-07-29T05:11:01;4.25;;;1.83;;
4909;SDS011;2470;49.868;8.660;2022-07-29T05:13:27;1.42;;;1.20;;
4909;SDS011;2470;49.868;8.660;2022-07-29T05:15:52;5.28;;;1.77;;
4909;SDS011;2470;49.868;8.660;2022-07-29T05:18:18;2.55;;;1.42;;
4909;SDS011;2470;49.868;8.660;2022-07-29T05:20:43;1.65;;;1.42;;
4909;SDS011;2470;49.868;8.660;2022-07-29T05:23:09;2.05;;;1.50;;
4909;SDS011;2470;49.868;8.660;2022-07-29T05:25:37;1.65;;;1.25;;
4909;SDS011;2470;49.868;8.660;2022-07-29T05:28:03;1.75;;;1.48;;
4909;SDS011;2470;49.868;8.660;2022-07-29T05:30:28;2.90;;;1.70;;
4909;SDS011;2470;49.868;8.660;2022-07-29T05:32:54;1.38;;;1.27;;
4909;SDS011;2470;49.868;8.660;2022-07-29T05:35:19;2.92;;;1.48;;
4909;SDS011;2470;49.868;8.660;2022-07-29T05:37:45;2.63;;;2.00;;
4909;SDS011;2470;49.868;8.660;2022-07-29T05:40:11;1.23;;;1.13;;
4909;SDS011;2470;49.868;8.660;2022-07-29T05:42:36;1.60;;;1.40;;
4909;SDS011;2470;49.868;8.660;2022-07-29T05:45:02;1.73;;;1.48;;
4909;SDS011;2470;49.868;8.660;2022-07-29T05:47:28;2.05;;;1.50;;
4909;SDS011;2470;49.868;8.660;2022-07-29T05:49:53;3.25;;;1.90;;
4909;SDS011;2470;49.868;8.660;2022-07-29T05:52:20;2.45;;;1.33;;
4909;SDS011;2470;49.868;8.660;2022-07-29T05:54:46;2.10;;;1.65;;
4909;SDS011;2470;49.868;8.660;2022-07-29T05:57:15;2.17;;;1.33;;
4909;SDS011;2470;49.868;8.660;2022-07-29T05:59:41;2.80;;;1.48;;
4909;SDS011;2470;49.868;8.660;2022-07-29T06:02:07;1.48;;;1.33;;
4909;SDS011;2470;49.868;8.660;2022-07-29T06:04:32;1.52;;;1.42;;
4909;SDS011;2470;49.868;8.660;2022-07-29T06:06:58;1.75;;;1.23;;
4909;SDS011;2470;49.868;8.660;2022-07-29T06:09:24;3.33;;;1.67;;
4909;SDS011;2470;49.868;8.660;2022-07-29T06:11:49;2.10;;;1.30;;
4909;SDS011;2470;49.868;8.660;2022-07-29T06:14:15;2.75;;;1.63;;
4909;SDS011;2470;49.868;8.660;2022-07-29T06:16:40;1.65;;;1.40;;
4909;SDS011;2470;49.868;8.660;2022-07-29T06:19:06;2.08;;;1.77;;
4909;SDS011;2470;49.868;8.660;2022-07-29T06:21:32;4.88;;;1.75;;
4909;SDS011;2470;49.868;8.660;2022-07-29T06:23:58;3.55;;;2.17;;
4909;SDS011;2470;49.868;8.660;2022-07-29T06:26:24;2.45;;;1.50;;
4909;SDS011;2470;49.868;8.660;2022-07-29T06:28:49;1.55;;;1.45;;
4909;SDS011;2470;49.868;8.660;2022-07-29T06:31:15;1.95;;;1.50;;
4909;SDS011;2470;49.868;8.660;2022-07-29T06:33:41;2.72;;;1.80;;
4909;SDS011;2470;49.868;8.660;2022-07-29T06:36:06;1.67;;;1.40;;
4909;SDS011;2470;49.868;8.660;2022-07-29T06:38:32;2.10;;;1.42;;
4909;SDS011;2470;49.868;8.660;2022-07-29T06:40:58;1.80;;;1.30;;
4909;SDS011;2470;49.868;8.660;2022-07-29T06:46:07;1.55;;;1.33;;
4909;SDS011;2470;49.868;8.660;2022-07-29T06:48:34;5.25;;;1.83;;
4909;SDS011;2470;49.868;8.660;2022-07-29T06:51:03;3.50;;;1.67;;
4909;SDS011;2470;49.868;8.660;2022-07-29T06:53:30;1.73;;;1.45;;
4909;SDS011;2470;49.868;8.660;2022-07-29T06:55:57;1.98;;;1.48;;
4909;SDS011;2470;49.868;8.660;2022-07-29T06:58:24;1.80;;;1.65;;
4909;SDS011;2470;49.868;8.660;2022-07-29T07:00:50;2.10;;;1.90;;
4909;SDS011;2470;49.868;8.660;2022-07-29T07:03:16;4.80;;;1.60;;
4909;SDS011;2470;49.868;8.660;2022-07-29T07:05:42;4.18;;;1.50;;
4909;SDS011;2470;49.868;8.660;2022-07-29T07:08:09;2.08;;;1.40;;
4909;SDS011;2470;49.868;8.660;2022-07-29T07:10:35;1.55;;;1.45;;
4909;SDS011;2470;49.868;8.660;2022-07-29T07:13:00;2.10;;;1.70;;
4909;SDS011;2470;49.868;8.660;2022-07-29T07:15:26;1.65;;;1.40;;
4909;SDS011;2470;49.868;8.660;2022-07-29T07:17:52;2.25;;;1.52;;
4909;SDS011;2470;49.868;8.660;2022-07-29T07:20:18;2.42;;;2.00;;
4909;SDS011;2470;49.868;8.660;2022-07-29T07:22:44;7.63;;;2.30;;
4909;SDS011;2470;49.868;8.660;2022-07-29T07:25:10;2.20;;;1.60;;
4909;SDS011;2470;49.868;8.660;2022-07-29T07:27:36;1.60;;;1.50;;
4909;SDS011;2470;49.868;8.660;2022-07-29T07:30:03;3.83;;;1.60;;
4909;SDS011;2470;49.868;8.660;2022-07-29T07:32:30;3.55;;;1.90;;
4909;SDS011;2470;49.868;8.660;2022-07-29T07:34:56;3.03;;;1.92;;
4909;SDS011;2470;49.868;8.660;2022-07-29T07:37:23;1.88;;;1.60;;
4909;SDS011;2470;49.868;8.660;2022-07-29T07:39:49;3.53;;;2.28;;
4909;SDS011;2470;49.868;8.660;2022-07-29T07:42:16;2.25;;;1.88;;
4909;SDS011;2470;49.868;8.660;2022-07-29T07:44:41;2.33;;;1.83;;
4909;SDS011;2470;49.868;8.660;2022-07-29T07:47:07;2.10;;;1.45;;
4909;SDS011;2470;49.868;8.660;2022-07-29T07:49:32;4.75;;;3.38;;
4909;SDS011;2470;49.868;8.660;2022-07-29T07:51:58;1.60;;;1.50;;
4909;SDS011;2470;49.868;8.660;2022-07-29T07:54:24;3.83;;;1.40;;
4909;SDS011;2470;49.868;8.660;2022-07-29T07:56:49;2.03;;;1.70;;
4909;SDS011;2470;49.868;8.660;2022-07-29T07:59:15;1.98;;;1.23;;
4909;SDS011;2470;49.868;8.660;2022-07-29T08:01:41;1.77;;;1.50;;
4909;SDS011;2470;49.868;8.660;2022-07-29T08:04:07;2.88;;;2.03;;
4909;SDS011;2470;49.868;8.660;2022-07-29T08:06:33;1.63;;;1.52;;
4909;SDS011;2470;49.868;8.660;2022-07-29T08:09:00;1.70;;;1.60;;
4909;SDS011;2470;49.868;8.660;2022-07-29T08:11:27;2.10;;;1.70;;
4909;SDS011;2470;49.868;8.660;2022-07-29T08:13:53;2.40;;;2.00;;
4909;SDS011;2470;49.868;8.660;2022-07-29T08:16:19;3.65;;;1.52;;
4909;SDS011;2470;49.868;8.660;2022-07-29T08:18:45;4.00;;;1.25;;
4909;SDS011;2470;49.868;8.660;2022-07-29T08:21:11;3.53;;;1.60;;
4909;SDS011;2470;49.868;8.660;2022-07-29T08:23:38;2.92;;;2.35;;
4909;SDS011;2470;49.868;8.660;2022-07-29T08:26:07;1.55;;;1.45;;
4909;SDS011;2470;49.868;8.660;2022-07-29T08:28:42;2.05;;;1.55;;
4909;SDS011;2470;49.868;8.660;2022-07-29T08:31:15;2.47;;;2.05;;
4909;SDS011;2470;49.868;8.660;2022-07-29T08:33:42;1.65;;;1.52;;
4909;SDS011;2470;49.868;8.660;2022-07-29T08:36:07;3.55;;;1.88;;
4909;SDS011;2470;49.868;8.660;2022-07-29T08:38:33;1.67;;;1.40;;
4909;SDS011;2470;49.868;8.660;2022-07-29T08:41:02;3.45;;;1.95;;
4909;SDS011;2470;49.868;8.660;2022-07-29T08:43:28;2.03;;;1.60;;
4909;SDS011;2470;49.868;8.660;2022-07-29T08:45:54;1.70;;;1.60;;
4909;SDS011;2470;49.868;8.660;2022-07-29T08:48:21;1.48;;;1.38;;
4909;SDS011;2470;49.868;8.660;2022-07-29T08:50:50;2.20;;;1.40;;
4909;SDS011;2470;49.868;8.660;2022-07-29T08:53:19;1.70;;;1.60;;
4909;SDS011;2470;49.868;8.660;2022-07-29T08:55:46;2.17;;;1.98;;
4909;SDS011;2470;49.868;8.660;2022-07-29T08:58:13;2.05;;;1.83;;
4909;SDS011;2470;49.868;8.660;2022-07-29T09:00:44;1.77;;;1.67;;
4909;SDS011;2470;49.868;8.660;2022-07-29T09:03:15;2.65;;;1.85;;
4909;SDS011;2470;49.868;8.660;2022-07-29T09:05:43;2.10;;;1.70;;
4909;SDS011;2470;49.868;8.660;2022-07-29T09:08:10;2.75;;;1.92;;
4909;SDS011;2470;49.868;8.660;2022-07-29T09:10:36;2.10;;;1.90;;
4909;SDS011;2470;49.868;8.660;2022-07-29T09:13:02;2.17;;;1.67;;
4909;SDS011;2470;49.868;8.660;2022-07-29T09:15:28;2.00;;;1.73;;
4909;SDS011;2470;49.868;8.660;2022-07-29T09:17:53;1.73;;;1.63;;
4909;SDS011;2470;49.868;8.660;2022-07-29T09:20:20;1.85;;;1.40;;
4909;SDS011;2470;49.868;8.660;2022-07-29T09:22:49;1.55;;;1.45;;
4909;SDS011;2470;49.868;8.660;2022-07-29T09:25:34;3.17;;;1.80;;
4909;SDS011;2470;49.868;8.660;2022-07-29T09:28:08;1.80;;;1.63;;
4909;SDS011;2470;49.868;8.660;2022-07-29T09:30:34;1.55;;;1.45;;
4909;SDS011;2470;49.868;8.660;2022-07-29T09:33:00;2.50;;;2.00;;
4909;SDS011;2470;49.868;8.660;2022-07-29T09:35:27;2.22;;;1.40;;
4909;SDS011;2470;49.868;8.660;2022-07-29T09:37:56;4.00;;;1.75;;
4909;SDS011;2470;49.868;8.660;2022-07-29T09:40:23;3.67;;;1.83;;
4909;SDS011;2470;49.868;8.660;2022-07-29T09:42:51;2.20;;;1.67;;
4909;SDS011;2470;49.868;8.660;2022-07-29T09:45:30;1.80;;;1.70;;
4909;SDS011;2470;49.868;8.660;2022-07-29T09:47:59;1.60;;;1.50;;
4909;SDS011;2470;49.868;8.660;2022-07-29T09:50:38;2.00;;;1.63;;
4909;SDS011;2470;49.868;8.660;2022-07-29T09:53:05;2.58;;;1.90;;
4909;SDS011;2470;49.868;8.660;2022-07-29T09:55:31;2.45;;;1.65;;
4909;SDS011;2470;49.868;8.660;2022-07-29T09:58:16;2.63;;;2.05;;
4909;SDS011;2470;49.868;8.660;2022-07-29T10:00:43;1.90;;;1.35;;
4909;SDS011;2470;49.868;8.660;2022-07-29T10:03:14;2.45;;;1.67;;
4909;SDS011;2470;49.868;8.660;2022-07-29T10:05:41;2.20;;;1.75;;
4909;SDS011;2470;49.868;8.660;2022-07-29T10:08:07;3.00;;;2.03;;
4909;SDS011;2470;49.868;8.660;2022-07-29T10:10:37;2.58;;;1.52;;
4909;SDS011;2470;49.868;8.660;2022-07-29T10:13:05;2.10;;;1.90;;
4909;SDS011;2470;49.868;8.660;2022-07-29T10:15:36;1.58;;;1.48;;
4909;SDS011;2470;49.868;8.660;2022-07-29T10:18:06;2.20;;;2.05;;
4909;SDS011;2470;49.868;8.660;2022-07-29T10:20:32;1.73;;;1.60;;
4909;SDS011;2470;49.868;8.660;2022-07-29T10:22:58;1.75;;;1.65;;
4909;SDS011;2470;49.868;8.660;2022-07-29T10:25:24;1.77;;;1.67;;
4909;SDS011;2470;49.868;8.660;2022-07-29T10:27:50;1.63;;;1.52;;
4909;SDS011;2470;49.868;8.660;2022-07-29T10:30:16;2.45;;;1.70;;
4909;SDS011;2470;49.868;8.660;2022-07-29T10:40:54;2.28;;;1.83;;
4909;SDS011;2470;49.868;8.660;2022-07-29T10:46:24;1.90;;;1.70;;
4909;SDS011;2470;49.868;8.660;2022-07-29T10:54:38;1.80;;;1.70;;
4909;SDS011;2470;49.868;8.660;2022-07-29T10:57:24;2.45;;;1.90;;
4909;SDS011;2470;49.868;8.660;2022-07-29T11:05:03;2.30;;;1.50;;
4909;SDS011;2470;49.868;8.660;2022-07-29T11:07:30;3.40;;;2.00;;
4909;SDS011;2470;49.868;8.660;2022-07-29T11:15:02;1.88;;;1.73;;
4909;SDS011;2470;49.868;8.660;2022-07-29T11:20:35;2.45;;;1.55;;
4909;SDS011;2470;49.868;8.660;2022-07-29T11:23:19;1.65;;;1.55;;
4909;SDS011;2470;49.868;8.660;2022-07-29T11:34:16;2.95;;;1.40;;
4909;SDS011;2470;49.868;8.660;2022-07-29T11:37:13;3.13;;;2.03;;
4909;SDS011;2470;49.868;8.660;2022-07-29T11:39:44;1.98;;;1.88;;
4909;SDS011;2470;49.868;8.660;2022-07-29T11:42:57;2.53;;;2.30;;
4909;SDS011;2470;49.868;8.660;2022-07-29T11:47:26;2.00;;;1.80;;
4909;SDS011;2470;49.868;8.660;2022-07-29T11:49:54;3.42;;;1.92;;
4909;SDS011;2470;49.868;8.660;2022-07-29T11:52:21;2.40;;;2.05;;
4909;SDS011;2470;49.868;8.660;2022-07-29T11:54:48;2.22;;;1.58;;
4909;SDS011;2470;49.868;8.660;2022-07-29T11:57:19;2.45;;;1.95;;
4909;SDS011;2470;49.868;8.660;2022-07-29T11:59:46;2.33;;;1.50;;
4909;SDS011;2470;49.868;8.660;2022-07-29T12:02:12;2.38;;;2.17;;
4909;SDS011;2470;49.868;8.660;2022-07-29T12:04:50;1.65;;;1.55;;
4909;SDS011;2470;49.868;8.660;2022-07-29T12:07:27;1.75;;;1.65;;
4909;SDS011;2470;49.868;8.660;2022-07-29T12:09:53;2.20;;;1.52;;
4909;SDS011;2470;49.868;8.660;2022-07-29T12:12:19;2.13;;;1.90;;
4909;SDS011;2470;49.868;8.660;2022-07-29T12:14:45;1.95;;;1.75;;
4909;SDS011;2470;49.868;8.660;2022-07-29T12:17:27;1.55;;;1.45;;
4909;SDS011;2470;49.868;8.660;2022-07-29T12:19:55;1.70;;;1.60;;
4909;SDS011;2470;49.868;8.660;2022-07-29T12:24:55;1.80;;;1.70;;
4909;SDS011;2470;49.868;8.660;2022-07-29T12:27:25;1.55;;;1.45;;
4909;SDS011;2470;49.868;8.660;2022-07-29T12:29:55;1.50;;;1.40;;
4909;SDS011;2470;49.868;8.660;2022-07-29T12:32:21;2.15;;;1.95;;
4909;SDS011;2470;49.868;8.660;2022-07-29T12:34:47;1.50;;;1.40;;
4909;SDS011;2470;49.868;8.660;2022-07-29T12:37:13;2.08;;;1.88;;
4909;SDS011;2470;49.868;8.660;2022-07-29T12:39:38;1.70;;;1.60;;
4909;SDS011;2470;49.868;8.660;2022-07-29T12:42:11;4.88;;;1.88;;
4909;SDS011;2470;49.868;8.660;2022-07-29T12:44:47;1.60;;;1.50;;
4909;SDS011;2470;49.868;8.660;2022-07-29T12:47:14;1.77;;;1.35;;
4909;SDS011;2470;49.868;8.660;2022-07-29T12:49:40;1.65;;;1.52;;
4909;SDS011;2470;49.868;8.660;2022-07-29T12:52:25;1.58;;;1.48;;
4909;SDS011;2470;49.868;8.660;2022-07-29T12:54:52;3.67;;;1.55;;
4909;SDS011;2470;49.868;8.660;2022-07-29T12:57:17;1.27;;;1.17;;
4909;SDS011;2470;49.868;8.660;2022-07-29T12:59:43;1.50;;;1.40;;
4909;SDS011;2470;49.868;8.660;2022-07-29T13:02:20;1.48;;;1.38;;
4909;SDS011;2470;49.868;8.660;2022-07-29T13:04:54;1.15;;;1.15;;
4909;SDS011;2470;49.868;8.660;2022-07-29T13:07:25;1.05;;;1.02;;
4909;SDS011;2470;49.868;8.660;2022-07-29T13:09:52;1.20;;;1.20;;
4909;SDS011;2470;49.868;8.660;2022-07-29T13:12:18;1.30;;;1.20;;
4909;SDS011;2470;49.868;8.660;2022-07-29T13:14:44;1.00;;;1.00;;
4909;SDS011;2470;49.868;8.660;2022-07-29T13:17:12;0.93;;;0.93;;
4909;SDS011;2470;49.868;8.660;2022-07-29T13:22:07;1.00;;;1.00;;
4909;SDS011;2470;49.868;8.660;2022-07-29T13:27:17;1.20;;;1.10;;
4909;SDS011;2470;49.868;8.660;2022-07-29T13:30:10;0.80;;;0.80;;
4909;SDS011;2470;49.868;8.660;2022-07-29T13:32:36;1.67;;;1.00;;
4909;SDS011;2470;49.868;8.660;2022-07-29T13:35:04;0.80;;;0.80;;
4909;SDS011;2470;49.868;8.660;2022-07-29T13:37:32;1.10;;;1.10;;
4909;SDS011;2470;49.868;8.660;2022-07-29T13:39:59;1.05;;;1.05;;
4909;SDS011;2470;49.868;8.660;2022-07-29T13:42:27;1.05;;;1.05;;
4909;SDS011;2470;49.868;8.660;2022-07-29T13:44:53;1.17;;;1.17;;
4909;SDS011;2470;49.868;8.660;2022-07-29T13:47:19;1.23;;;1.13;;
4909;SDS011;2470;49.868;8.660;2022-07-29T13:49:46;1.17;;;1.00;;
4909;SDS011;2470;49.868;8.660;2022-07-29T13:52:12;1.00;;;1.00;;
4909;SDS011;2470;49.868;8.660;2022-07-29T13:54:37;0.98;;;0.98;;
4909;SDS011;2470;49.868;8.660;2022-07-29T13:57:03;0.88;;;0.88;;
4909;SDS011;2470;49.868;8.660;2022-07-29T13:59:29;1.70;;;1.20;;
4909;SDS011;2470;49.868;8.660;2022-07-29T14:01:55;1.58;;;1.48;;
4909;SDS011;2470;49.868;8.660;2022-07-29T14:04:20;1.30;;;1.20;;
4909;SDS011;2470;49.868;8.660;2022-07-29T14:06:48;1.40;;;1.30;;
4909;SDS011;2470;49.868;8.660;2022-07-29T14:09:13;1.50;;;1.33;;
4909;SDS011;2470;49.868;8.660;2022-07-29T14:11:39;1.65;;;1.55;;
4909;SDS011;2470;49.868;8.660;2022-07-29T14:14:05;1.67;;;1.58;;
4909;SDS011;2470;49.868;8.660;2022-07-29T14:16:30;1.42;;;1.33;;
4909;SDS011;2470;49.868;8.660;2022-07-29T14:18:56;1.42;;;1.33;;
4909;SDS011;2470;49.868;8.660;2022-07-29T14:21:21;1.92;;;1.73;;
4909;SDS011;2470;49.868;8.660;2022-07-29T14:23:47;1.70;;;1.40;;
4909;SDS011;2470;49.868;8.660;2022-07-29T14:26:13;1.27;;;1.23;;
4909;SDS011;2470;49.868;8.660;2022-07-29T14:28:38;1.20;;;1.10;;
4909;SDS011;2470;49.868;8.660;2022-07-29T14:31:04;1.58;;;1.48;;
4909;SDS011;2470;49.868;8.660;2022-07-29T14:33:29;1.17;;;1.13;;
4909;SDS011;2470;49.868;8.660;2022-07-29T14:35:55;1.60;;;1.50;;
4909;SDS011;2470;49.868;8.660;2022-07-29T14:38:20;4.57;;;1.70;;
4909;SDS011;2470;49.868;8.660;2022-07-29T14:40:46;1.83;;;1.20;;
4909;SDS011;2470;49.868;8.660;2022-07-29T14:43:12;1.98;;;1.88;;
4909;SDS011;2470;49.868;8.660;2022-07-29T14:45:38;1.90;;;1.80;;
4909;SDS011;2470;49.868;8.660;2022-07-29T14:48:04;1.65;;;1.55;;
4909;SDS011;2470;49.868;8.660;2022-07-29T14:50:30;2.42;;;1.58;;
4909;SDS011;2470;49.868;8.660;2022-07-29T14:52:55;1.85;;;1.75;;
4909;SDS011;2470;49.868;8.660;2022-07-29T14:55:21;1.45;;;1.35;;
4909;SDS011;2470;49.868;8.660;2022-07-29T14:57:47;2.00;;;1.20;;
4909;SDS011;2470;49.868;8.660;2022-07-29T15:00:14;2.10;;;1.38;;
4909;SDS011;2470;49.868;8.660;2022-07-29T15:02:41;1.65;;;1.55;;
4909;SDS011;2470;49.868;8.660;2022-07-29T15:05:07;1.73;;;1.60;;
4909;SDS011;2470;49.868;8.660;2022-07-29T15:07:32;2.35;;;1.92;;
4909;SDS011;2470;49.868;8.660;2022-07-29T15:09:58;2.03;;;1.73;;
4909;SDS011;2470;49.868;8.660;2022-07-29T15:12:23;2.15;;;1.73;;
4909;SDS011;2470;49.868;8.660;2022-07-29T15:14:49;1.52;;;1.42;;
4909;SDS011;2470;49.868;8.660;2022-07-29T15:17:14;2.47;;;1.60;;
4909;SDS011;2470;49.868;8.660;2022-07-29T15:19:40;1.52;;;1.42;;
4909;SDS011;2470;49.868;8.660;2022-07-29T15:22:06;2.90;;;1.95;;
4909;SDS011;2470;49.868;8.660;2022-07-29T15:24:31;1.63;;;1.52;;
4909;SDS011;2470;49.868;8.660;2022-07-29T15:26:57;1.63;;;1.52;;
4909;SDS011;2470;49.868;8.660;2022-07-29T15:29:22;1.88;;;1.77;;
4909;SDS011;2470;49.868;8.660;2022-07-29T15:31:48;2.15;;;1.98;;
4909;SDS011;2470;49.868;8.660;2022-07-29T15:34:14;1.73;;;1.58;;
4909;SDS011;2470;49.868;8.660;2022-07-29T15:36:39;1.73;;;1.63;;
4909;SDS011;2470;49.868;8.660;2022-07-29T15:39:05;4.72;;;1.83;;
4909;SDS011;2470;49.868;8.660;2022-07-29T15:41:30;1.60;;;1.50;;
4909;SDS011;2470;49.868;8.660;2022-07-29T15:43:56;1.58;;;1.48;;
4909;SDS011;2470;49.868;8.660;2022-07-29T15:46:22;1.60;;;1.50;;
4909;SDS011;2470;49.868;8.660;2022-07-29T15:49:06;1.80;;;1.70;;
4909;SDS011;2470;49.868;8.660;2022-07-29T15:51:33;2.47;;;1.50;;
4909;SDS011;2470;49.868;8.660;2022-07-29T15:54:02;1.50;;;1.40;;
4909;SDS011;2470;49.868;8.660;2022-07-29T15:56:29;1.70;;;1.35;;
4909;SDS011;2470;49.868;8.660;2022-07-29T15:58:56;1.98;;;1.77;;
4909;SDS011;2470;49.868;8.660;2022-07-29T16:01:22;2.25;;;1.58;;
4909;SDS011;2470;49.868;8.660;2022-07-29T16:03:48;1.92;;;1.83;;
4909;SDS011;2470;49.868;8.660;2022-07-29T16:06:14;1.35;;;1.25;;
4909;SDS011;2470;49.868;8.660;2022-07-29T16:08:40;1.77;;;1.52;;
4909;SDS011;2470;49.868;8.660;2022-07-29T16:11:05;2.10;;;1.70;;
4909;SDS011;2470;49.868;8.660;2022-07-29T16:13:31;13.85;;;3.13;;
4909;SDS011;2470;49.868;8.660;2022-07-29T16:15:56;1.80;;;1.70;;
4909;SDS011;2470;49.868;8.660;2022-07-29T16:18:22;1.95;;;1.83;;
4909;SDS011;2470;49.868;8.660;2022-07-29T16:20:47;2.40;;;2.05;;
4909;SDS011;2470;49.868;8.660;2022-07-29T16:23:13;1.75;;;1.60;;